sensor_id;sensor_type;location;lat;lon;timestamp;P1;durP1;ratioP1;P2;durP2;ratioP2
12554;SDS011;6343;50.868;4.700;2023-09-18T00:01:13;5.57;;;4.50;;
12554;SDS011;6343;50.868;4.700;2023-09-18T00:03:40;6.33;;;4.70;;
12554;SDS011;6343;50.868;4.700;2023-09-18T00:06:06;7.00;;;4.40;;
12554;SDS011;6343;50.868;4.700;2023-09-18T00:08:33;7.57;;;4.70;;
12554;SDS011;6343;50.868;4.700;2023-09-18T00:10:59;7.07;;;4.30;;
12554;SDS011;6343;50.868;4.700;2023-09-18T00:13:26;5.77;;;4.50;;
12554;SDS011;6343;50.868;4.700;2023-09-18T00:15:54;6.73;;;4.70;;
12554;SDS011;6343;50.868;4.700;2023-09-18T00:18:20;8.47;;;5.07;;
12554;SDS011;6343;50.868;4.700;2023-09-18T00:20:46;6.93;;;4.60;;
12554;SDS011;6343;50.868;4.700;2023-09-18T00:23:13;7.20;;;4.60;;
12554;SDS011;6343;50.868;4.700;2023-09-18T00:25:40;6.20;;;4.37;;
12554;SDS011;6343;50.868;4.700;2023-09-18T00:28:07;8.03;;;4.97;;
12554;SDS011;6343;50.868;4.700;2023-09-18T00:30:34;6.27;;;4.43;;
12554;SDS011;6343;50.868;4.700;2023-09-18T00:33:00;6.60;;;4.57;;
12554;SDS011;6343;50.868;4.700;2023-09-18T00:35:26;5.37;;;4.70;;
12554;SDS011;6343;50.868;4.700;2023-09-18T00:37:52;6.20;;;4.33;;
12554;SDS011;6343;50.868;4.700;2023-09-18T00:40:18;4.87;;;4.37;;
12554;SDS011;6343;50.868;4.700;2023-09-18T00:42:45;6.03;;;4.67;;
12554;SDS011;6343;50.868;4.700;2023-09-18T00:45:11;7.57;;;4.30;;
12554;SDS011;6343;50.868;4.700;2023-09-18T00:47:37;5.97;;;4.33;;
12554;SDS011;6343;50.868;4.700;2023-09-18T00:50:04;7.70;;;4.77;;
12554;SDS011;6343;50.868;4.700;2023-09-18T00:52:31;12.40;;;4.77;;
12554;SDS011;6343;50.868;4.700;2023-09-18T00:54:58;5.17;;;4.27;;
12554;SDS011;6343;50.868;4.700;2023-09-18T00:57:25;10.80;;;4.33;;
12554;SDS011;6343;50.868;4.700;2023-09-18T00:59:51;7.07;;;4.53;;
12554;SDS011;6343;50.868;4.700;2023-09-18T01:02:18;9.93;;;5.33;;
12554;SDS011;6343;50.868;4.700;2023-09-18T01:04:45;7.60;;;4.80;;
12554;SDS011;6343;50.868;4.700;2023-09-18T01:07:12;6.70;;;4.83;;
12554;SDS011;6343;50.868;4.700;2023-09-18T01:09:39;8.77;;;5.27;;
12554;SDS011;6343;50.868;4.700;2023-09-18T01:12:09;8.77;;;5.30;;
12554;SDS011;6343;50.868;4.700;2023-09-18T01:15:01;8.70;;;4.40;;
12554;SDS011;6343;50.868;4.700;2023-09-18T01:17:23;8.93;;;4.80;;
12554;SDS011;6343;50.868;4.700;2023-09-18T01:19:50;8.67;;;5.10;;
12554;SDS011;6343;50.868;4.700;2023-09-18T01:22:17;6.30;;;3.97;;
12554;SDS011;6343;50.868;4.700;2023-09-18T01:24:44;10.00;;;4.63;;
12554;SDS011;6343;50.868;4.700;2023-09-18T01:27:11;8.33;;;4.60;;
12554;SDS011;6343;50.868;4.700;2023-09-18T01:29:42;6.47;;;4.40;;
12554;SDS011;6343;50.868;4.700;2023-09-18T01:32:08;8.37;;;4.70;;
12554;SDS011;6343;50.868;4.700;2023-09-18T01:34:38;5.43;;;4.37;;
12554;SDS011;6343;50.868;4.700;2023-09-18T01:37:06;11.03;;;4.93;;
12554;SDS011;6343;50.868;4.700;2023-09-18T01:39:33;11.93;;;4.47;;
12554;SDS011;6343;50.868;4.700;2023-09-18T01:42:01;7.83;;;4.33;;
12554;SDS011;6343;50.868;4.700;2023-09-18T01:44:28;9.40;;;4.20;;
12554;SDS011;6343;50.868;4.700;2023-09-18T01:46:55;6.40;;;4.20;;
12554;SDS011;6343;50.868;4.700;2023-09-18T01:49:28;7.90;;;4.57;;
12554;SDS011;6343;50.868;4.700;2023-09-18T01:51:55;8.90;;;4.47;;
12554;SDS011;6343;50.868;4.700;2023-09-18T01:54:21;10.43;;;4.50;;
12554;SDS011;6343;50.868;4.700;2023-09-18T01:56:47;6.43;;;4.40;;
12554;SDS011;6343;50.868;4.700;2023-09-18T01:59:13;6.40;;;4.47;;
12554;SDS011;6343;50.868;4.700;2023-09-18T02:01:39;9.10;;;4.47;;
12554;SDS011;6343;50.868;4.700;2023-09-18T02:04:05;7.50;;;4.80;;
12554;SDS011;6343;50.868;4.700;2023-09-18T02:06:31;7.20;;;5.00;;
12554;SDS011;6343;50.868;4.700;2023-09-18T02:08:58;8.43;;;4.63;;
12554;SDS011;6343;50.868;4.700;2023-09-18T02:11:24;7.77;;;4.67;;
12554;SDS011;6343;50.868;4.700;2023-09-18T02:13:50;8.30;;;4.50;;
12554;SDS011;6343;50.868;4.700;2023-09-18T02:16:16;6.93;;;4.30;;
12554;SDS011;6343;50.868;4.700;2023-09-18T02:18:42;7.40;;;4.27;;
12554;SDS011;6343;50.868;4.700;2023-09-18T02:21:08;7.93;;;4.43;;
12554;SDS011;6343;50.868;4.700;2023-09-18T02:23:34;6.53;;;4.33;;
12554;SDS011;6343;50.868;4.700;2023-09-18T02:26:00;5.87;;;4.30;;
12554;SDS011;6343;50.868;4.700;2023-09-18T02:28:27;7.60;;;4.67;;
12554;SDS011;6343;50.868;4.700;2023-09-18T02:30:53;9.00;;;5.13;;
12554;SDS011;6343;50.868;4.700;2023-09-18T02:33:19;13.30;;;4.90;;
12554;SDS011;6343;50.868;4.700;2023-09-18T02:35:45;5.90;;;4.73;;
12554;SDS011;6343;50.868;4.700;2023-09-18T02:38:11;5.90;;;4.30;;
12554;SDS011;6343;50.868;4.700;2023-09-18T02:40:37;5.37;;;4.13;;
12554;SDS011;6343;50.868;4.700;2023-09-18T02:43:03;8.40;;;4.13;;
12554;SDS011;6343;50.868;4.700;2023-09-18T02:45:29;7.80;;;4.83;;
12554;SDS011;6343;50.868;4.700;2023-09-18T02:47:55;7.67;;;5.17;;
12554;SDS011;6343;50.868;4.700;2023-09-18T02:50:21;10.27;;;4.60;;
12554;SDS011;6343;50.868;4.700;2023-09-18T02:52:47;6.90;;;4.70;;
12554;SDS011;6343;50.868;4.700;2023-09-18T02:55:14;6.97;;;4.00;;
12554;SDS011;6343;50.868;4.700;2023-09-18T02:57:40;10.00;;;4.20;;
12554;SDS011;6343;50.868;4.700;2023-09-18T03:00:06;6.13;;;4.20;;
12554;SDS011;6343;50.868;4.700;2023-09-18T03:02:32;5.97;;;3.73;;
12554;SDS011;6343;50.868;4.700;2023-09-18T03:04:59;7.37;;;4.17;;
12554;SDS011;6343;50.868;4.700;2023-09-18T03:07:25;10.00;;;4.53;;
12554;SDS011;6343;50.868;4.700;2023-09-18T03:09:54;4.83;;;4.17;;
12554;SDS011;6343;50.868;4.700;2023-09-18T03:12:20;6.30;;;3.90;;
12554;SDS011;6343;50.868;4.700;2023-09-18T03:14:47;6.57;;;3.90;;
12554;SDS011;6343;50.868;4.700;2023-09-18T03:17:13;7.43;;;3.90;;
12554;SDS011;6343;50.868;4.700;2023-09-18T03:19:39;5.97;;;3.80;;
12554;SDS011;6343;50.868;4.700;2023-09-18T03:22:05;6.70;;;3.77;;
12554;SDS011;6343;50.868;4.700;2023-09-18T03:24:32;4.13;;;3.20;;
12554;SDS011;6343;50.868;4.700;2023-09-18T03:26:58;6.40;;;3.33;;
12554;SDS011;6343;50.868;4.700;2023-09-18T03:29:24;6.37;;;3.57;;
12554;SDS011;6343;50.868;4.700;2023-09-18T03:31:50;7.27;;;3.37;;
12554;SDS011;6343;50.868;4.700;2023-09-18T03:34:16;6.23;;;2.93;;
12554;SDS011;6343;50.868;4.700;2023-09-18T03:36:42;5.67;;;3.63;;
12554;SDS011;6343;50.868;4.700;2023-09-18T03:39:08;7.33;;;3.20;;
12554;SDS011;6343;50.868;4.700;2023-09-18T03:41:35;5.13;;;2.70;;
12554;SDS011;6343;50.868;4.700;2023-09-18T03:44:01;4.93;;;2.97;;
12554;SDS011;6343;50.868;4.700;2023-09-18T03:46:27;2.93;;;1.83;;
12554;SDS011;6343;50.868;4.700;2023-09-18T03:48:53;3.57;;;2.13;;
12554;SDS011;6343;50.868;4.700;2023-09-18T03:51:20;2.80;;;1.90;;
12554;SDS011;6343;50.868;4.700;2023-09-18T03:53:46;3.37;;;1.73;;
12554;SDS011;6343;50.868;4.700;2023-09-18T03:56:13;2.17;;;1.70;;
12554;SDS011;6343;50.868;4.700;2023-09-18T03:58:39;4.50;;;2.10;;
12554;SDS011;6343;50.868;4.700;2023-09-18T04:01:05;3.43;;;1.53;;
12554;SDS011;6343;50.868;4.700;2023-09-18T04:03:31;1.57;;;1.30;;
12554;SDS011;6343;50.868;4.700;2023-09-18T04:05:57;3.60;;;1.47;;
12554;SDS011;6343;50.868;4.700;2023-09-18T04:08:23;3.43;;;1.60;;
12554;SDS011;6343;50.868;4.700;2023-09-18T04:10:49;1.63;;;1.43;;
12554;SDS011;6343;50.868;4.700;2023-09-18T04:13:15;2.33;;;1.80;;
12554;SDS011;6343;50.868;4.700;2023-09-18T04:15:42;1.20;;;1.10;;
12554;SDS011;6343;50.868;4.700;2023-09-18T04:18:08;1.53;;;1.20;;
12554;SDS011;6343;50.868;4.700;2023-09-18T04:20:34;2.57;;;1.60;;
12554;SDS011;6343;50.868;4.700;2023-09-18T04:23:16;3.93;;;1.53;;
12554;SDS011;6343;50.868;4.700;2023-09-18T04:25:43;2.90;;;1.40;;
12554;SDS011;6343;50.868;4.700;2023-09-18T04:28:09;1.57;;;1.07;;
12554;SDS011;6343;50.868;4.700;2023-09-18T04:30:35;2.13;;;1.50;;
12554;SDS011;6343;50.868;4.700;2023-09-18T04:33:01;2.33;;;1.30;;
12554;SDS011;6343;50.868;4.700;2023-09-18T04:35:27;3.43;;;1.53;;
12554;SDS011;6343;50.868;4.700;2023-09-18T04:37:56;2.33;;;1.30;;
12554;SDS011;6343;50.868;4.700;2023-09-18T04:40:22;3.60;;;1.40;;
12554;SDS011;6343;50.868;4.700;2023-09-18T04:42:49;2.23;;;1.20;;
12554;SDS011;6343;50.868;4.700;2023-09-18T04:45:15;2.13;;;1.27;;
12554;SDS011;6343;50.868;4.700;2023-09-18T04:47:41;1.83;;;1.27;;
12554;SDS011;6343;50.868;4.700;2023-09-18T04:50:07;1.83;;;1.20;;
12554;SDS011;6343;50.868;4.700;2023-09-18T04:52:38;3.13;;;1.60;;
12554;SDS011;6343;50.868;4.700;2023-09-18T04:55:05;4.30;;;1.57;;
12554;SDS011;6343;50.868;4.700;2023-09-18T04:57:32;2.97;;;1.30;;
12554;SDS011;6343;50.868;4.700;2023-09-18T04:59:59;1.90;;;1.23;;
12554;SDS011;6343;50.868;4.700;2023-09-18T05:02:25;2.53;;;1.40;;
12554;SDS011;6343;50.868;4.700;2023-09-18T05:04:51;2.47;;;1.43;;
12554;SDS011;6343;50.868;4.700;2023-09-18T05:07:18;3.93;;;1.37;;
12554;SDS011;6343;50.868;4.700;2023-09-18T05:09:44;3.10;;;1.10;;
12554;SDS011;6343;50.868;4.700;2023-09-18T05:12:11;3.93;;;1.60;;
12554;SDS011;6343;50.868;4.700;2023-09-18T05:14:42;4.07;;;1.87;;
12554;SDS011;6343;50.868;4.700;2023-09-18T05:17:13;2.83;;;1.40;;
12554;SDS011;6343;50.868;4.700;2023-09-18T05:19:39;4.20;;;1.20;;
12554;SDS011;6343;50.868;4.700;2023-09-18T05:22:06;9.83;;;1.40;;
12554;SDS011;6343;50.868;4.700;2023-09-18T05:24:32;3.83;;;1.50;;
12554;SDS011;6343;50.868;4.700;2023-09-18T05:26:58;2.73;;;1.30;;
12554;SDS011;6343;50.868;4.700;2023-09-18T05:29:24;2.13;;;1.20;;
12554;SDS011;6343;50.868;4.700;2023-09-18T05:31:50;3.20;;;1.50;;
12554;SDS011;6343;50.868;4.700;2023-09-18T05:34:17;3.07;;;1.47;;
12554;SDS011;6343;50.868;4.700;2023-09-18T05:36:43;6.27;;;1.63;;
12554;SDS011;6343;50.868;4.700;2023-09-18T05:39:09;2.10;;;1.33;;
12554;SDS011;6343;50.868;4.700;2023-09-18T05:41:38;3.33;;;1.40;;
12554;SDS011;6343;50.868;4.700;2023-09-18T05:44:04;1.80;;;1.27;;
12554;SDS011;6343;50.868;4.700;2023-09-18T05:46:33;2.27;;;1.20;;
12554;SDS011;6343;50.868;4.700;2023-09-18T05:48:59;3.97;;;1.70;;
12554;SDS011;6343;50.868;4.700;2023-09-18T05:51:27;2.77;;;1.30;;
12554;SDS011;6343;50.868;4.700;2023-09-18T05:53:53;3.47;;;1.27;;
12554;SDS011;6343;50.868;4.700;2023-09-18T05:56:19;2.23;;;1.23;;
12554;SDS011;6343;50.868;4.700;2023-09-18T05:58:46;2.33;;;1.23;;
12554;SDS011;6343;50.868;4.700;2023-09-18T06:01:12;4.43;;;1.30;;
12554;SDS011;6343;50.868;4.700;2023-09-18T06:03:38;4.00;;;1.47;;
12554;SDS011;6343;50.868;4.700;2023-09-18T06:06:04;2.70;;;1.33;;
12554;SDS011;6343;50.868;4.700;2023-09-18T06:08:30;2.10;;;1.40;;
12554;SDS011;6343;50.868;4.700;2023-09-18T06:10:58;4.70;;;1.73;;
12554;SDS011;6343;50.868;4.700;2023-09-18T06:13:24;2.83;;;1.50;;
12554;SDS011;6343;50.868;4.700;2023-09-18T06:15:51;3.27;;;1.30;;
12554;SDS011;6343;50.868;4.700;2023-09-18T06:18:19;3.63;;;1.63;;
12554;SDS011;6343;50.868;4.700;2023-09-18T06:20:46;2.20;;;1.30;;
12554;SDS011;6343;50.868;4.700;2023-09-18T06:23:12;4.20;;;1.27;;
12554;SDS011;6343;50.868;4.700;2023-09-18T06:25:41;1.93;;;1.10;;
12554;SDS011;6343;50.868;4.700;2023-09-18T06:28:07;2.23;;;1.07;;
12554;SDS011;6343;50.868;4.700;2023-09-18T06:30:34;2.13;;;1.23;;
12554;SDS011;6343;50.868;4.700;2023-09-18T06:33:01;6.60;;;1.00;;
12554;SDS011;6343;50.868;4.700;2023-09-18T06:35:29;2.40;;;1.30;;
12554;SDS011;6343;50.868;4.700;2023-09-18T06:37:55;4.33;;;1.27;;
12554;SDS011;6343;50.868;4.700;2023-09-18T06:40:23;2.50;;;1.23;;
12554;SDS011;6343;50.868;4.700;2023-09-18T06:42:50;1.83;;;1.20;;
12554;SDS011;6343;50.868;4.700;2023-09-18T06:45:17;2.57;;;0.90;;
12554;SDS011;6343;50.868;4.700;2023-09-18T06:47:43;6.20;;;1.30;;
12554;SDS011;6343;50.868;4.700;2023-09-18T06:50:09;3.30;;;1.40;;
12554;SDS011;6343;50.868;4.700;2023-09-18T06:52:37;2.70;;;1.27;;
12554;SDS011;6343;50.868;4.700;2023-09-18T06:55:03;3.13;;;1.30;;
12554;SDS011;6343;50.868;4.700;2023-09-18T06:57:30;3.47;;;1.30;;
12554;SDS011;6343;50.868;4.700;2023-09-18T06:59:56;2.30;;;1.30;;
12554;SDS011;6343;50.868;4.700;2023-09-18T07:02:22;2.30;;;1.30;;
12554;SDS011;6343;50.868;4.700;2023-09-18T07:04:48;4.87;;;1.50;;
12554;SDS011;6343;50.868;4.700;2023-09-18T07:07:15;4.60;;;1.30;;
12554;SDS011;6343;50.868;4.700;2023-09-18T07:09:41;4.37;;;1.50;;
12554;SDS011;6343;50.868;4.700;2023-09-18T07:12:08;3.77;;;1.60;;
12554;SDS011;6343;50.868;4.700;2023-09-18T07:14:35;2.70;;;1.30;;
12554;SDS011;6343;50.868;4.700;2023-09-18T07:17:01;2.07;;;1.40;;
12554;SDS011;6343;50.868;4.700;2023-09-18T07:19:27;3.73;;;1.30;;
12554;SDS011;6343;50.868;4.700;2023-09-18T07:21:53;5.13;;;1.30;;
12554;SDS011;6343;50.868;4.700;2023-09-18T07:24:20;2.67;;;1.17;;
12554;SDS011;6343;50.868;4.700;2023-09-18T07:26:49;2.47;;;1.37;;
12554;SDS011;6343;50.868;4.700;2023-09-18T07:29:15;3.90;;;1.53;;
12554;SDS011;6343;50.868;4.700;2023-09-18T07:31:42;5.23;;;1.47;;
12554;SDS011;6343;50.868;4.700;2023-09-18T07:34:11;3.10;;;1.40;;
12554;SDS011;6343;50.868;4.700;2023-09-18T07:36:37;2.53;;;1.70;;
12554;SDS011;6343;50.868;4.700;2023-09-18T07:39:03;3.17;;;1.67;;
12554;SDS011;6343;50.868;4.700;2023-09-18T07:41:29;3.03;;;1.47;;
12554;SDS011;6343;50.868;4.700;2023-09-18T07:43:56;2.97;;;1.73;;
12554;SDS011;6343;50.868;4.700;2023-09-18T07:46:23;7.17;;;1.63;;
12554;SDS011;6343;50.868;4.700;2023-09-18T07:48:49;2.93;;;1.40;;
12554;SDS011;6343;50.868;4.700;2023-09-18T07:51:16;2.87;;;1.47;;
12554;SDS011;6343;50.868;4.700;2023-09-18T07:53:42;2.23;;;1.40;;
12554;SDS011;6343;50.868;4.700;2023-09-18T07:56:08;2.40;;;1.50;;
12554;SDS011;6343;50.868;4.700;2023-09-18T07:58:35;2.93;;;1.30;;
12554;SDS011;6343;50.868;4.700;2023-09-18T08:01:04;2.47;;;1.57;;
12554;SDS011;6343;50.868;4.700;2023-09-18T08:03:30;6.73;;;2.20;;
12554;SDS011;6343;50.868;4.700;2023-09-18T08:05:57;4.37;;;1.43;;
12554;SDS011;6343;50.868;4.700;2023-09-18T08:08:23;2.73;;;1.87;;
12554;SDS011;6343;50.868;4.700;2023-09-18T08:10:52;3.00;;;1.70;;
12554;SDS011;6343;50.868;4.700;2023-09-18T08:13:19;4.67;;;1.50;;
12554;SDS011;6343;50.868;4.700;2023-09-18T08:15:45;3.03;;;1.10;;
12554;SDS011;6343;50.868;4.700;2023-09-18T08:18:11;4.43;;;1.50;;
12554;SDS011;6343;50.868;4.700;2023-09-18T08:20:41;4.07;;;1.60;;
12554;SDS011;6343;50.868;4.700;2023-09-18T08:23:08;2.13;;;1.30;;
12554;SDS011;6343;50.868;4.700;2023-09-18T08:25:34;1.73;;;1.60;;
12554;SDS011;6343;50.868;4.700;2023-09-18T08:28:00;5.87;;;1.47;;
12554;SDS011;6343;50.868;4.700;2023-09-18T08:30:27;3.13;;;1.50;;
12554;SDS011;6343;50.868;4.700;2023-09-18T08:32:53;3.80;;;1.57;;
12554;SDS011;6343;50.868;4.700;2023-09-18T08:35:19;12.50;;;2.00;;
12554;SDS011;6343;50.868;4.700;2023-09-18T08:37:45;4.53;;;1.40;;
12554;SDS011;6343;50.868;4.700;2023-09-18T08:40:14;3.73;;;1.70;;
12554;SDS011;6343;50.868;4.700;2023-09-18T08:42:45;2.93;;;1.47;;
12554;SDS011;6343;50.868;4.700;2023-09-18T08:45:15;4.10;;;1.70;;
12554;SDS011;6343;50.868;4.700;2023-09-18T08:47:42;5.33;;;1.70;;
12554;SDS011;6343;50.868;4.700;2023-09-18T08:50:08;4.50;;;1.60;;
12554;SDS011;6343;50.868;4.700;2023-09-18T08:52:38;4.40;;;1.80;;
12554;SDS011;6343;50.868;4.700;2023-09-18T08:55:06;2.47;;;1.70;;
12554;SDS011;6343;50.868;4.700;2023-09-18T08:57:32;5.47;;;1.93;;
12554;SDS011;6343;50.868;4.700;2023-09-18T09:00:00;2.50;;;1.60;;
12554;SDS011;6343;50.868;4.700;2023-09-18T09:02:32;5.87;;;1.90;;
12554;SDS011;6343;50.868;4.700;2023-09-18T09:04:58;2.73;;;1.87;;
12554;SDS011;6343;50.868;4.700;2023-09-18T09:07:25;10.47;;;2.07;;
12554;SDS011;6343;50.868;4.700;2023-09-18T09:09:51;3.20;;;1.93;;
12554;SDS011;6343;50.868;4.700;2023-09-18T09:13:03;3.33;;;1.80;;
12554;SDS011;6343;50.868;4.700;2023-09-18T09:15:05;3.50;;;1.93;;
12554;SDS011;6343;50.868;4.700;2023-09-18T09:17:31;4.30;;;1.73;;
12554;SDS011;6343;50.868;4.700;2023-09-18T09:20:07;4.83;;;2.00;;
12554;SDS011;6343;50.868;4.700;2023-09-18T09:22:36;6.73;;;2.30;;
12554;SDS011;6343;50.868;4.700;2023-09-18T09:25:02;5.57;;;1.77;;
12554;SDS011;6343;50.868;4.700;2023-09-18T09:27:28;4.37;;;2.10;;
12554;SDS011;6343;50.868;4.700;2023-09-18T09:30:00;4.67;;;2.40;;
12554;SDS011;6343;50.868;4.700;2023-09-18T09:32:29;3.03;;;1.70;;
12554;SDS011;6343;50.868;4.700;2023-09-18T09:34:58;3.70;;;1.70;;
12554;SDS011;6343;50.868;4.700;2023-09-18T09:37:30;4.40;;;2.30;;
12554;SDS011;6343;50.868;4.700;2023-09-18T09:39:56;4.20;;;2.10;;
12554;SDS011;6343;50.868;4.700;2023-09-18T09:42:24;2.27;;;1.63;;
12554;SDS011;6343;50.868;4.700;2023-09-18T09:45:04;6.00;;;2.10;;
12554;SDS011;6343;50.868;4.700;2023-09-18T09:47:32;4.97;;;1.70;;
12554;SDS011;6343;50.868;4.700;2023-09-18T09:49:59;5.90;;;3.10;;
12554;SDS011;6343;50.868;4.700;2023-09-18T09:52:32;4.93;;;1.80;;
12554;SDS011;6343;50.868;4.700;2023-09-18T09:54:59;4.10;;;2.17;;
12554;SDS011;6343;50.868;4.700;2023-09-18T09:57:25;9.27;;;2.10;;
12554;SDS011;6343;50.868;4.700;2023-09-18T09:59:51;8.30;;;2.40;;
12554;SDS011;6343;50.868;4.700;2023-09-18T10:02:19;4.23;;;1.90;;
12554;SDS011;6343;50.868;4.700;2023-09-18T10:04:48;4.47;;;2.40;;
12554;SDS011;6343;50.868;4.700;2023-09-18T10:07:15;4.40;;;1.97;;
12554;SDS011;6343;50.868;4.700;2023-09-18T10:09:52;4.33;;;2.40;;
12554;SDS011;6343;50.868;4.700;2023-09-18T10:12:19;7.10;;;2.10;;
12554;SDS011;6343;50.868;4.700;2023-09-18T10:14:46;4.20;;;2.33;;
12554;SDS011;6343;50.868;4.700;2023-09-18T10:17:18;5.93;;;2.20;;
12554;SDS011;6343;50.868;4.700;2023-09-18T10:22:30;5.77;;;2.13;;
12554;SDS011;6343;50.868;4.700;2023-09-18T10:25:15;3.90;;;1.93;;
12554;SDS011;6343;50.868;4.700;2023-09-18T10:27:47;7.47;;;2.13;;
12554;SDS011;6343;50.868;4.700;2023-09-18T10:30:14;4.30;;;2.17;;
12554;SDS011;6343;50.868;4.700;2023-09-18T10:32:44;4.47;;;2.20;;
12554;SDS011;6343;50.868;4.700;2023-09-18T10:35:11;4.07;;;2.00;;
12554;SDS011;6343;50.868;4.700;2023-09-18T10:37:38;2.73;;;1.73;;
12554;SDS011;6343;50.868;4.700;2023-09-18T10:40:10;3.27;;;1.80;;
12554;SDS011;6343;50.868;4.700;2023-09-18T10:42:37;2.92;;;1.90;;
12554;SDS011;6343;50.868;4.700;2023-09-18T10:45:03;3.20;;;2.17;;
12554;SDS011;6343;50.868;4.700;2023-09-18T10:47:30;6.30;;;2.40;;
12554;SDS011;6343;50.868;4.700;2023-09-18T10:49:56;9.30;;;2.20;;
12554;SDS011;6343;50.868;4.700;2023-09-18T10:52:23;2.93;;;1.90;;
12554;SDS011;6343;50.868;4.700;2023-09-18T10:54:49;3.77;;;2.43;;
12554;SDS011;6343;50.868;4.700;2023-09-18T10:57:15;4.67;;;2.20;;
12554;SDS011;6343;50.868;4.700;2023-09-18T10:59:44;3.50;;;2.20;;
12554;SDS011;6343;50.868;4.700;2023-09-18T11:02:13;3.97;;;2.00;;
12554;SDS011;6343;50.868;4.700;2023-09-18T11:04:40;4.35;;;2.30;;
12554;SDS011;6343;50.868;4.700;2023-09-18T11:07:07;7.63;;;2.35;;
12554;SDS011;6343;50.868;4.700;2023-09-18T11:09:44;4.80;;;1.90;;
12554;SDS011;6343;50.868;4.700;2023-09-18T11:12:11;2.97;;;2.05;;
12554;SDS011;6343;50.868;4.700;2023-09-18T11:14:41;3.35;;;1.98;;
12554;SDS011;6343;50.868;4.700;2023-09-18T11:20:28;4.70;;;2.08;;
12554;SDS011;6343;50.868;4.700;2023-09-18T11:22:48;4.22;;;1.95;;
12554;SDS011;6343;50.868;4.700;2023-09-18T11:28:00;4.40;;;2.00;;
12554;SDS011;6343;50.868;4.700;2023-09-18T11:30:27;3.10;;;1.70;;
12554;SDS011;6343;50.868;4.700;2023-09-18T11:32:54;4.65;;;1.70;;
12554;SDS011;6343;50.868;4.700;2023-09-18T11:35:20;4.50;;;1.95;;
12554;SDS011;6343;50.868;4.700;2023-09-18T11:37:47;2.58;;;1.60;;
12554;SDS011;6343;50.868;4.700;2023-09-18T11:40:31;2.13;;;1.70;;
12554;SDS011;6343;50.868;4.700;2023-09-18T11:45:44;6.53;;;2.17;;
12554;SDS011;6343;50.868;4.700;2023-09-18T11:48:15;2.95;;;1.90;;
12554;SDS011;6343;50.868;4.700;2023-09-18T11:50:43;5.25;;;2.13;;
12554;SDS011;6343;50.868;4.700;2023-09-18T11:53:10;3.78;;;2.05;;
12554;SDS011;6343;50.868;4.700;2023-09-18T11:55:39;7.90;;;2.38;;
12554;SDS011;6343;50.868;4.700;2023-09-18T11:58:05;3.20;;;1.90;;
12554;SDS011;6343;50.868;4.700;2023-09-18T12:00:35;5.40;;;2.13;;
12554;SDS011;6343;50.868;4.700;2023-09-18T12:03:23;5.80;;;2.05;;
12554;SDS011;6343;50.868;4.700;2023-09-18T12:05:53;5.68;;;2.20;;
12554;SDS011;6343;50.868;4.700;2023-09-18T12:08:21;6.65;;;2.53;;
12554;SDS011;6343;50.868;4.700;2023-09-18T12:10:50;4.97;;;1.90;;
12554;SDS011;6343;50.868;4.700;2023-09-18T12:13:16;3.72;;;1.75;;
12554;SDS011;6343;50.868;4.700;2023-09-18T12:15:46;6.22;;;2.10;;
12554;SDS011;6343;50.868;4.700;2023-09-18T12:18:16;2.75;;;1.70;;
12554;SDS011;6343;50.868;4.700;2023-09-18T12:20:49;6.53;;;1.73;;
12554;SDS011;6343;50.868;4.700;2023-09-18T12:23:18;3.03;;;1.70;;
12554;SDS011;6343;50.868;4.700;2023-09-18T12:25:48;2.80;;;1.98;;
12554;SDS011;6343;50.868;4.700;2023-09-18T12:28:15;2.88;;;1.92;;
12554;SDS011;6343;50.868;4.700;2023-09-18T12:30:42;2.25;;;1.77;;
12554;SDS011;6343;50.868;4.700;2023-09-18T12:33:08;2.08;;;1.60;;
12554;SDS011;6343;50.868;4.700;2023-09-18T12:35:35;2.30;;;1.50;;
12554;SDS011;6343;50.868;4.700;2023-09-18T12:38:16;3.38;;;1.73;;
12554;SDS011;6343;50.868;4.700;2023-09-18T12:40:44;4.82;;;1.83;;
12554;SDS011;6343;50.868;4.700;2023-09-18T12:43:12;2.92;;;1.75;;
12554;SDS011;6343;50.868;4.700;2023-09-18T12:45:39;3.65;;;1.92;;
12554;SDS011;6343;50.868;4.700;2023-09-18T12:48:06;2.55;;;1.70;;
12554;SDS011;6343;50.868;4.700;2023-09-18T12:50:32;3.33;;;1.67;;
12554;SDS011;6343;50.868;4.700;2023-09-18T12:53:12;3.40;;;1.55;;
12554;SDS011;6343;50.868;4.700;2023-09-18T12:55:44;5.68;;;1.85;;
12554;SDS011;6343;50.868;4.700;2023-09-18T12:58:11;2.55;;;1.60;;
12554;SDS011;6343;50.868;4.700;2023-09-18T13:00:40;3.67;;;1.58;;
12554;SDS011;6343;50.868;4.700;2023-09-18T13:03:11;3.33;;;1.60;;
12554;SDS011;6343;50.868;4.700;2023-09-18T13:05:46;11.07;;;1.83;;
12554;SDS011;6343;50.868;4.700;2023-09-18T13:08:13;5.20;;;1.83;;
12554;SDS011;6343;50.868;4.700;2023-09-18T13:10:48;4.93;;;2.03;;
12554;SDS011;6343;50.868;4.700;2023-09-18T13:13:19;3.47;;;1.88;;
12554;SDS011;6343;50.868;4.700;2023-09-18T13:15:46;4.15;;;1.65;;
12554;SDS011;6343;50.868;4.700;2023-09-18T13:18:16;4.15;;;1.92;;
12554;SDS011;6343;50.868;4.700;2023-09-18T13:20:43;3.50;;;1.80;;
12554;SDS011;6343;50.868;4.700;2023-09-18T13:23:21;2.97;;;1.70;;
12554;SDS011;6343;50.868;4.700;2023-09-18T13:25:58;3.47;;;1.45;;
12554;SDS011;6343;50.868;4.700;2023-09-18T13:28:24;4.53;;;1.65;;
12554;SDS011;6343;50.868;4.700;2023-09-18T13:30:50;44.05;;;3.08;;
12554;SDS011;6343;50.868;4.700;2023-09-18T13:33:17;5.07;;;1.50;;
12554;SDS011;6343;50.868;4.700;2023-09-18T13:35:44;1.67;;;1.40;;
12554;SDS011;6343;50.868;4.700;2023-09-18T13:38:11;2.63;;;1.45;;
12554;SDS011;6343;50.868;4.700;2023-09-18T13:40:40;5.03;;;1.40;;
12554;SDS011;6343;50.868;4.700;2023-09-18T13:43:10;5.30;;;2.00;;
12554;SDS011;6343;50.868;4.700;2023-09-18T13:45:40;6.45;;;1.55;;
12554;SDS011;6343;50.868;4.700;2023-09-18T13:48:10;12.85;;;2.35;;
12554;SDS011;6343;50.868;4.700;2023-09-18T13:50:37;2.10;;;1.20;;
12554;SDS011;6343;50.868;4.700;2023-09-18T13:53:04;3.67;;;1.20;;
12554;SDS011;6343;50.868;4.700;2023-09-18T13:55:31;5.65;;;1.45;;
12554;SDS011;6343;50.868;4.700;2023-09-18T13:57:57;3.20;;;1.30;;
12554;SDS011;6343;50.868;4.700;2023-09-18T14:00:23;3.78;;;1.52;;
12554;SDS011;6343;50.868;4.700;2023-09-18T14:02:51;8.02;;;1.60;;
12554;SDS011;6343;50.868;4.700;2023-09-18T14:05:17;10.95;;;1.63;;
12554;SDS011;6343;50.868;4.700;2023-09-18T14:07:44;24.65;;;2.95;;
12554;SDS011;6343;50.868;4.700;2023-09-18T14:10:12;9.68;;;1.80;;
12554;SDS011;6343;50.868;4.700;2023-09-18T14:12:39;7.65;;;1.70;;
12554;SDS011;6343;50.868;4.700;2023-09-18T14:15:06;4.97;;;1.60;;
12554;SDS011;6343;50.868;4.700;2023-09-18T14:17:33;9.63;;;1.70;;
12554;SDS011;6343;50.868;4.700;2023-09-18T14:19:59;1.77;;;1.23;;
12554;SDS011;6343;50.868;4.700;2023-09-18T14:22:25;7.47;;;1.55;;
12554;SDS011;6343;50.868;4.700;2023-09-18T14:24:52;5.25;;;1.50;;
12554;SDS011;6343;50.868;4.700;2023-09-18T14:27:18;3.95;;;1.48;;
12554;SDS011;6343;50.868;4.700;2023-09-18T14:29:44;5.18;;;1.50;;
12554;SDS011;6343;50.868;4.700;2023-09-18T14:32:10;5.95;;;1.67;;
12554;SDS011;6343;50.868;4.700;2023-09-18T14:34:36;4.20;;;1.50;;
12554;SDS011;6343;50.868;4.700;2023-09-18T14:37:03;4.05;;;1.60;;
12554;SDS011;6343;50.868;4.700;2023-09-18T14:39:30;3.78;;;1.58;;
12554;SDS011;6343;50.868;4.700;2023-09-18T14:41:56;2.17;;;1.27;;
12554;SDS011;6343;50.868;4.700;2023-09-18T14:44:22;2.38;;;1.55;;
12554;SDS011;6343;50.868;4.700;2023-09-18T14:46:48;2.88;;;1.50;;
12554;SDS011;6343;50.868;4.700;2023-09-18T14:49:15;5.63;;;1.35;;
12554;SDS011;6343;50.868;4.700;2023-09-18T14:51:41;4.57;;;2.30;;
12554;SDS011;6343;50.868;4.700;2023-09-18T14:54:07;3.97;;;1.58;;
12554;SDS011;6343;50.868;4.700;2023-09-18T14:56:33;4.45;;;1.70;;
12554;SDS011;6343;50.868;4.700;2023-09-18T14:59:02;8.25;;;1.77;;
12554;SDS011;6343;50.868;4.700;2023-09-18T15:01:30;10.88;;;1.75;;
12554;SDS011;6343;50.868;4.700;2023-09-18T15:03:56;6.22;;;2.00;;
12554;SDS011;6343;50.868;4.700;2023-09-18T15:06:22;60.45;;;6.78;;
12554;SDS011;6343;50.868;4.700;2023-09-18T15:08:48;20.42;;;2.10;;
12554;SDS011;6343;50.868;4.700;2023-09-18T15:11:14;4.18;;;1.50;;
12554;SDS011;6343;50.868;4.700;2023-09-18T15:13:44;9.48;;;2.08;;